Coral Ruby — 3ERR6 — position and weather

sailwx.info

Track history (hours):
 
Tides and Currents Weather Stations Pressure Air Temp Water Temp Dewpoint Dewpoint Depression Visibility Wind Speed Wind Dir Waves Ship Positions

Coral Ruby

Last reported at 2016-Jan-11 20:33 UTC. Time now 2016-Feb-11 02:27 UTC.
Position S 25°16' E 153°59'.
Warning: this ship's position is 30 days out of date.

Length 225 m; draft 13.1 m.

Type: Ship. MMSI: 370150000.

Date/timePositionNaut miles runAvg speedWind from/ knotsBaromVisibWave heightAir tempDewpointWater temp
2016-Jan-11 20:33S 25°16' E 153°59'10 9.9
2016-Jan-11 19:31S 25°26' E 153°58'9 9.5
2016-Jan-11 18:33S 25°35' E 153°58'10 9.2
2016-Jan-11 17:30S 25°45' E 153°57'9 9.2
2016-Jan-11 16:32S 25°54' E 153°57'9 9.1
2016-Jan-11 15:32S 26°03' E 153°56'9 8.8
2016-Jan-11 14:32S 26°12' E 153°55'9 9.0
2016-Jan-11 13:31S 26°21' E 153°55'9 9.0
2016-Jan-11 12:33S 26°30' E 153°55'9 9.1
2016-Jan-11 11:33S 26°39' E 153°54'10 9.6
2016-Jan-11 10:33S 26°48' E 153°53'10 9.6
2016-Jan-11 09:32S 26°58' E 153°53'10 9.9
2016-Jan-11 08:33S 27°08' E 153°52'10 9.4
2016-Jan-11 07:33S 27°17' E 153°52'9 8.9
2016-Jan-11 06:33S 27°26' E 153°51'9 9.1
2016-Jan-11 05:31S 27°36' E 153°50'9 8.9
2016-Jan-11 04:33S 27°44' E 153°50'9 9.0
2016-Jan-11 03:33S 27°53' E 153°50'9 9.0
2016-Jan-11 02:33S 28°02' E 153°49'27010.8
2016-Jan-10 01:33S 32°26' E 152°42'1010.1
2016-Jan-10 00:33S 32°34' E 152°35'1110.8
2016-Jan-09 23:34S 32°42' E 152°26'1111.4
2016-Jan-09 22:34S 32°49' E 152°16'1111.4
2016-Jan-09 21:33S 32°55' E 152°04'1111.0
2016-Jan-09 20:34S 32°57' E 151°51'5 5.1
2016-Jan-09 19:33S 32°54' E 151°46'1 0.6
2016-Jan-09 18:32S 32°53' E 151°46'0 0.0
2016-Jan-09 17:32S 32°53' E 151°46'0 0.0
2016-Jan-09 16:32S 32°53' E 151°46'0 0.0
2016-Jan-09 15:23S 32°53' E 151°46'0 0.0
2016-Jan-09 14:32S 32°53' E 151°46'0 0.0
2016-Jan-09 13:32S 32°53' E 151°46'0 0.0
2016-Jan-09 12:32S 32°53' E 151°46'0 0.0
2016-Jan-09 11:32S 32°53' E 151°46'0 0.0
2016-Jan-09 10:23S 32°53' E 151°46'0 0.0
2016-Jan-09 09:32S 32°53' E 151°46'0 0.0
2016-Jan-09 08:32S 32°53' E 151°46'0 0.0
2016-Jan-09 07:32S 32°53' E 151°46'0 0.0
2016-Jan-09 06:32S 32°53' E 151°46'0 0.0
2016-Jan-09 05:29S 32°53' E 151°46'0 0.0
2016-Jan-09 04:32S 32°53' E 151°46'0 0.0
2016-Jan-09 03:32S 32°53' E 151°46'0 0.0
2016-Jan-09 02:29S 32°53' E 151°46'0 0.0
2016-Jan-09 01:32S 32°53' E 151°46'0 0.0
2016-Jan-09 00:32S 32°53' E 151°46'0 0.0
2016-Jan-08 23:32S 32°53' E 151°46'0 0.0
2016-Jan-08 22:32S 32°53' E 151°46'0 0.0
2016-Jan-08 21:32S 32°53' E 151°46'0 0.0
2016-Jan-08 20:32S 32°53' E 151°46'3 2.4
2016-Jan-08 19:25S 32°54' E 151°49'7 8.2
2016-Jan-08 18:33S 33°00' E 151°53'9 1.0
2016-Jan-08 09:12S 33°06' E 151°44'1 0.1
2016-Jan-08 03:21S 33°06' E 151°45'5 6.6
2016-Jan-08 02:34S 33°06' E 151°51'1312.9
2016-Jan-08 01:34S 33°05' E 152°07'1312.7
2016-Jan-08 00:34S 33°07' E 152°22'5 4.5
2016-Jan-07 23:31S 33°07' E 152°27'1 0.5
2016-Jan-07 22:28S 33°08' E 152°27'0 0.4
2016-Jan-07 21:31S 33°08' E 152°27'0 0.3
2016-Jan-07 20:31S 33°08' E 152°28'0 0.2
2016-Jan-07 19:31S 33°08' E 152°28'0 0.3
2016-Jan-07 18:31S 33°08' E 152°28'0 0.1
2016-Jan-07 17:31S 33°08' E 152°28'0 0.1
2016-Jan-07 16:28S 33°08' E 152°28'0 0.2
2016-Jan-07 15:31S 33°08' E 152°28'0 0.2
2016-Jan-07 14:28S 33°08' E 152°29'0 0.2
2016-Jan-07 13:31S 33°08' E 152°29'0 0.2
2016-Jan-07 12:31S 33°08' E 152°29'0 0.2
2016-Jan-07 11:31S 33°08' E 152°28'0 0.1
2016-Jan-07 10:31S 33°08' E 152°29'0 0.0
2016-Jan-07 09:31S 33°08' E 152°29'0 0.3
2016-Jan-07 08:31S 33°07' E 152°28'0 0.2
2016-Jan-07 07:31S 33°07' E 152°28'0 0.1
2016-Jan-07 06:31S 33°08' E 152°28'0 0.3
2016-Jan-07 05:31S 33°08' E 152°28'0 0.5
2016-Jan-07 04:28S 33°08' E 152°28'1 0.5
2016-Jan-07 03:19S 33°09' E 152°28'4 1.0
2016-Jan-06 23:28S 33°13' E 152°27'1 1.3
2016-Jan-06 22:22S 33°14' E 152°26'1 1.2
2016-Jan-06 21:28S 33°15' E 152°26'1 1.1
2016-Jan-06 20:28S 33°16' E 152°25'1 1.1
2016-Jan-06 19:28S 33°17' E 152°25'1 1.1
2016-Jan-06 18:31S 33°18' E 152°24'1 1.1
2016-Jan-06 17:28S 33°19' E 152°23'15 1.9
2016-Jan-06 09:33S 33°05' E 152°16'4 4.3
2016-Jan-06 08:31S 33°00' E 152°15'2 2.0
2016-Jan-06 07:31S 33°02' E 152°15'2 2.1
2016-Jan-06 06:33S 33°04' E 152°15'2 2.4
2016-Jan-06 05:32S 33°07' E 152°16'3 2.8
2016-Jan-06 04:33S 33°10' E 152°16'3 2.9
2016-Jan-06 03:33S 33°12' E 152°17'3 3.0
2016-Jan-06 02:31S 33°15' E 152°18'4 0.9
2016-Jan-05 21:33S 33°14' E 152°13'1010.3
2016-Jan-05 20:33S 33°17' E 152°01'13 0.9
2016-Jan-05 05:33S 33°15' E 152°17'7 0.4
2016-Jan-04 14:23S 33°12' E 152°24'810.2
2016-Jan-04 13:34S 33°05' E 152°18'1010.1
2016-Jan-04 12:33S 32°57' E 152°12'2 1.5
2016-Jan-04 11:32S 32°58' E 152°13'2 2.0
2016-Jan-04 10:32S 32°60' E 152°14'2 2.0
2016-Jan-04 09:32S 33°01' E 152°16'2 2.1
2016-Jan-04 08:33S 33°03' E 152°18'2 2.1
2016-Jan-04 07:33S 33°04' E 152°19'7 7.3
2016-Jan-04 06:33S 33°07' E 152°11'1111.4
2016-Jan-04 05:33S 33°14' E 152°01'5 1.0
2016-Jan-04 00:10S 33°17' E 151°55'3 2.5
2016-Jan-03 23:10S 33°15' E 151°57'2 2.4
2016-Jan-03 22:31S 33°14' E 151°59'2 2.1
2016-Jan-03 21:22S 33°13' E 152°01'2 2.0
2016-Jan-03 20:31S 33°12' E 152°03'2 1.8
2016-Jan-03 19:10S 33°10' E 152°05'1 1.6
2016-Jan-03 18:31S 33°10' E 152°06'5 1.7
2016-Jan-03 15:28S 33°07' E 152°11'1 1.6
2016-Jan-03 14:31S 33°06' E 152°13'2 1.7
2016-Jan-03 13:28S 33°05' E 152°15'3 3.5
2016-Jan-03 12:33S 33°02' E 152°16'1111.3
2016-Jan-03 11:33S 32°51' E 152°14'1 1.4
2016-Jan-03 10:31S 32°52' E 152°15'2 1.5
2016-Jan-03 09:28S 32°53' E 152°17'1 1.4
2016-Jan-03 08:31S 32°54' E 152°18'1 1.5
2016-Jan-03 07:31S 32°55' E 152°19'1 1.3
2016-Jan-03 06:31S 32°55' E 152°21'1 1.4
2016-Jan-03 05:31S 32°56' E 152°22'1 1.1
2016-Jan-03 04:31S 32°57' E 152°23'9 9.0
2016-Jan-03 03:34S 32°59' E 152°13'1211.7
2016-Jan-03 02:33S 33°04' E 152°01'6 3.0
2016-Jan-03 00:33S 33°07' E 151°54'3 1.2
2016-Jan-02 22:03S 33°06' E 151°58'1 1.3
2016-Jan-02 21:24S 33°05' E 151°59'1 1.5
2016-Jan-02 20:33S 33°04' E 151°60'1 1.4
2016-Jan-02 19:33S 33°03' E 152°01'1 1.3
2016-Jan-02 18:30S 33°02' E 152°02'1 1.3
2016-Jan-02 17:33S 33°02' E 152°03'1 1.4
2016-Jan-02 16:33S 33°01' E 152°05'1 1.4
2016-Jan-02 15:33S 32°60' E 152°06'2 1.5
2016-Jan-02 14:33S 32°59' E 152°08'2 1.6
2016-Jan-02 13:33S 32°59' E 152°09'2 1.6
2016-Jan-02 12:33S 32°58' E 152°11'2 1.7
2016-Jan-02 11:30S 32°57' E 152°13'2 1.8
2016-Jan-02 10:33S 32°57' E 152°15'2 1.8
2016-Jan-02 09:33S 32°57' E 152°17'2 1.7
2016-Jan-02 08:33S 32°56' E 152°19'2 1.6
2016-Jan-02 07:33S 32°57' E 152°21'2 2.2
2016-Jan-02 06:33S 32°54' E 152°21'5 5.2
2016-Jan-02 05:33S 32°49' E 152°21'1 1.1
2016-Jan-02 04:33S 32°50' E 152°22'1 1.1
2016-Jan-02 03:32S 32°50' E 152°23'1 0.5
2016-Jan-02 02:32S 32°51' E 152°23'8 8.1
2016-Jan-02 01:33S 32°57' E 152°18'1312.6
2016-Jan-02 00:33S 33°07' E 152°08'1212.4
2016-Jan-01 23:34S 33°16' E 151°58'  
Track history (hours):
 
Tides and Currents Weather Stations Pressure Air Temp Water Temp Dewpoint Dewpoint Depression Visibility Wind Speed Wind Dir Waves Ship Positions

Coral Ruby

Last reported at 2016-Jan-11 20:33 UTC. Time now 2016-Feb-11 02:27 UTC.
Position S 25°16' E 153°59'.
Warning: this ship's position is 30 days out of date.

Length 225 m; draft 13.1 m.

Type: Ship. MMSI: 370150000.

Date/timePositionNaut miles runAvg speedWind from/ knotsBaromVisibWave heightAir tempDewpointWater temp
2016-Jan-11 20:33S 25°16' E 153°59'10 9.9
2016-Jan-11 19:31S 25°26' E 153°58'9 9.5
2016-Jan-11 18:33S 25°35' E 153°58'10 9.2
2016-Jan-11 17:30S 25°45' E 153°57'9 9.2
2016-Jan-11 16:32S 25°54' E 153°57'9 9.1
2016-Jan-11 15:32S 26°03' E 153°56'9 8.8
2016-Jan-11 14:32S 26°12' E 153°55'9 9.0
2016-Jan-11 13:31S 26°21' E 153°55'9 9.0
2016-Jan-11 12:33S 26°30' E 153°55'9 9.1
2016-Jan-11 11:33S 26°39' E 153°54'10 9.6
2016-Jan-11 10:33S 26°48' E 153°53'10 9.6
2016-Jan-11 09:32S 26°58' E 153°53'10 9.9
2016-Jan-11 08:33S 27°08' E 153°52'10 9.4
2016-Jan-11 07:33S 27°17' E 153°52'9 8.9
2016-Jan-11 06:33S 27°26' E 153°51'9 9.1
2016-Jan-11 05:31S 27°36' E 153°50'9 8.9
2016-Jan-11 04:33S 27°44' E 153°50'9 9.0
2016-Jan-11 03:33S 27°53' E 153°50'9 9.0
2016-Jan-11 02:33S 28°02' E 153°49'27010.8
2016-Jan-10 01:33S 32°26' E 152°42'1010.1
2016-Jan-10 00:33S 32°34' E 152°35'1110.8
2016-Jan-09 23:34S 32°42' E 152°26'1111.4
2016-Jan-09 22:34S 32°49' E 152°16'1111.4
2016-Jan-09 21:33S 32°55' E 152°04'1111.0
2016-Jan-09 20:34S 32°57' E 151°51'5 5.1
2016-Jan-09 19:33S 32°54' E 151°46'1 0.6
2016-Jan-09 18:32S 32°53' E 151°46'0 0.0
2016-Jan-09 17:32S 32°53' E 151°46'0 0.0
2016-Jan-09 16:32S 32°53' E 151°46'0 0.0
2016-Jan-09 15:23S 32°53' E 151°46'0 0.0
2016-Jan-09 14:32S 32°53' E 151°46'0 0.0
2016-Jan-09 13:32S 32°53' E 151°46'0 0.0
2016-Jan-09 12:32S 32°53' E 151°46'0 0.0
2016-Jan-09 11:32S 32°53' E 151°46'0 0.0
2016-Jan-09 10:23S 32°53' E 151°46'0 0.0
2016-Jan-09 09:32S 32°53' E 151°46'0 0.0
2016-Jan-09 08:32S 32°53' E 151°46'0 0.0
2016-Jan-09 07:32S 32°53' E 151°46'0 0.0
2016-Jan-09 06:32S 32°53' E 151°46'0 0.0
2016-Jan-09 05:29S 32°53' E 151°46'0 0.0
2016-Jan-09 04:32S 32°53' E 151°46'0 0.0
2016-Jan-09 03:32S 32°53' E 151°46'0 0.0
2016-Jan-09 02:29S 32°53' E 151°46'0 0.0
2016-Jan-09 01:32S 32°53' E 151°46'0 0.0
2016-Jan-09 00:32S 32°53' E 151°46'0 0.0
2016-Jan-08 23:32S 32°53' E 151°46'0 0.0
2016-Jan-08 22:32S 32°53' E 151°46'0 0.0
2016-Jan-08 21:32S 32°53' E 151°46'0 0.0
2016-Jan-08 20:32S 32°53' E 151°46'3 2.4
2016-Jan-08 19:25S 32°54' E 151°49'7 8.2
2016-Jan-08 18:33S 33°00' E 151°53'9 1.0
2016-Jan-08 09:12S 33°06' E 151°44'1 0.1
2016-Jan-08 03:21S 33°06' E 151°45'5 6.6
2016-Jan-08 02:34S 33°06' E 151°51'1312.9
2016-Jan-08 01:34S 33°05' E 152°07'1312.7
2016-Jan-08 00:34S 33°07' E 152°22'5 4.5
2016-Jan-07 23:31S 33°07' E 152°27'1 0.5
2016-Jan-07 22:28S 33°08' E 152°27'0 0.4
2016-Jan-07 21:31S 33°08' E 152°27'0 0.3
2016-Jan-07 20:31S 33°08' E 152°28'0 0.2
2016-Jan-07 19:31S 33°08' E 152°28'0 0.3
2016-Jan-07 18:31S 33°08' E 152°28'0 0.1
2016-Jan-07 17:31S 33°08' E 152°28'0 0.1
2016-Jan-07 16:28S 33°08' E 152°28'0 0.2
2016-Jan-07 15:31S 33°08' E 152°28'0 0.2
2016-Jan-07 14:28S 33°08' E 152°29'0 0.2
2016-Jan-07 13:31S 33°08' E 152°29'0 0.2
2016-Jan-07 12:31S 33°08' E 152°29'0 0.2
2016-Jan-07 11:31S 33°08' E 152°28'0 0.1
2016-Jan-07 10:31S 33°08' E 152°29'0 0.0
2016-Jan-07 09:31S 33°08' E 152°29'0 0.3
2016-Jan-07 08:31S 33°07' E 152°28'0 0.2
2016-Jan-07 07:31S 33°07' E 152°28'0 0.1
2016-Jan-07 06:31S 33°08' E 152°28'0 0.3
2016-Jan-07 05:31S 33°08' E 152°28'0 0.5
2016-Jan-07 04:28S 33°08' E 152°28'1 0.5
2016-Jan-07 03:19S 33°09' E 152°28'4 1.0
2016-Jan-06 23:28S 33°13' E 152°27'1 1.3
2016-Jan-06 22:22S 33°14' E 152°26'1 1.2
2016-Jan-06 21:28S 33°15' E 152°26'1 1.1
2016-Jan-06 20:28S 33°16' E 152°25'1 1.1
2016-Jan-06 19:28S 33°17' E 152°25'1 1.1
2016-Jan-06 18:31S 33°18' E 152°24'1 1.1
2016-Jan-06 17:28S 33°19' E 152°23'15 1.9
2016-Jan-06 09:33S 33°05' E 152°16'4 4.3
2016-Jan-06 08:31S 33°00' E 152°15'2 2.0
2016-Jan-06 07:31S 33°02' E 152°15'2 2.1
2016-Jan-06 06:33S 33°04' E 152°15'2 2.4
2016-Jan-06 05:32S 33°07' E 152°16'3 2.8
2016-Jan-06 04:33S 33°10' E 152°16'3 2.9
2016-Jan-06 03:33S 33°12' E 152°17'3 3.0
2016-Jan-06 02:31S 33°15' E 152°18'4 0.9
2016-Jan-05 21:33S 33°14' E 152°13'1010.3
2016-Jan-05 20:33S 33°17' E 152°01'13 0.9
2016-Jan-05 05:33S 33°15' E 152°17'7 0.4
2016-Jan-04 14:23S 33°12' E 152°24'810.2
2016-Jan-04 13:34S 33°05' E 152°18'1010.1
2016-Jan-04 12:33S 32°57' E 152°12'2 1.5
2016-Jan-04 11:32S 32°58' E 152°13'2 2.0
2016-Jan-04 10:32S 32°60' E 152°14'2 2.0
2016-Jan-04 09:32S 33°01' E 152°16'2 2.1
2016-Jan-04 08:33S 33°03' E 152°18'2 2.1
2016-Jan-04 07:33S 33°04' E 152°19'7 7.3
2016-Jan-04 06:33S 33°07' E 152°11'1111.4
2016-Jan-04 05:33S 33°14' E 152°01'5 1.0
2016-Jan-04 00:10S 33°17' E 151°55'3 2.5
2016-Jan-03 23:10S 33°15' E 151°57'2 2.4
2016-Jan-03 22:31S 33°14' E 151°59'2 2.1
2016-Jan-03 21:22S 33°13' E 152°01'2 2.0
2016-Jan-03 20:31S 33°12' E 152°03'2 1.8
2016-Jan-03 19:10S 33°10' E 152°05'1 1.6
2016-Jan-03 18:31S 33°10' E 152°06'5 1.7
2016-Jan-03 15:28S 33°07' E 152°11'1 1.6
2016-Jan-03 14:31S 33°06' E 152°13'2 1.7
2016-Jan-03 13:28S 33°05' E 152°15'3 3.5
2016-Jan-03 12:33S 33°02' E 152°16'1111.3
2016-Jan-03 11:33S 32°51' E 152°14'1 1.4
2016-Jan-03 10:31S 32°52' E 152°15'2 1.5
2016-Jan-03 09:28S 32°53' E 152°17'1 1.4
2016-Jan-03 08:31S 32°54' E 152°18'1 1.5
2016-Jan-03 07:31S 32°55' E 152°19'1 1.3
2016-Jan-03 06:31S 32°55' E 152°21'1 1.4
2016-Jan-03 05:31S 32°56' E 152°22'1 1.1
2016-Jan-03 04:31S 32°57' E 152°23'9 9.0
2016-Jan-03 03:34S 32°59' E 152°13'1211.7
2016-Jan-03 02:33S 33°04' E 152°01'6 3.0
2016-Jan-03 00:33S 33°07' E 151°54'3 1.2
2016-Jan-02 22:03S 33°06' E 151°58'1 1.3
2016-Jan-02 21:24S 33°05' E 151°59'1 1.5
2016-Jan-02 20:33S 33°04' E 151°60'1 1.4
2016-Jan-02 19:33S 33°03' E 152°01'1 1.3
2016-Jan-02 18:30S 33°02' E 152°02'1 1.3
2016-Jan-02 17:33S 33°02' E 152°03'1 1.4
2016-Jan-02 16:33S 33°01' E 152°05'1 1.4
2016-Jan-02 15:33S 32°60' E 152°06'2 1.5
2016-Jan-02 14:33S 32°59' E 152°08'2 1.6
2016-Jan-02 13:33S 32°59' E 152°09'2 1.6
2016-Jan-02 12:33S 32°58' E 152°11'2 1.7
2016-Jan-02 11:30S 32°57' E 152°13'2 1.8
2016-Jan-02 10:33S 32°57' E 152°15'2 1.8
2016-Jan-02 09:33S 32°57' E 152°17'2 1.7
2016-Jan-02 08:33S 32°56' E 152°19'2 1.6
2016-Jan-02 07:33S 32°57' E 152°21'2 2.2
2016-Jan-02 06:33S 32°54' E 152°21'5 5.2
2016-Jan-02 05:33S 32°49' E 152°21'1 1.1
2016-Jan-02 04:33S 32°50' E 152°22'1 1.1
2016-Jan-02 03:32S 32°50' E 152°23'1 0.5
2016-Jan-02 02:32S 32°51' E 152°23'8 8.1
2016-Jan-02 01:33S 32°57' E 152°18'1312.6
2016-Jan-02 00:33S 33°07' E 152°08'1212.4
2016-Jan-01 23:34S 33°16' E 151°58'  

Dump ship's entire track history